Fort Duchesne, Utah
Current Conditions -  °F | °C
As of 7:53 PM on Monday 20 Oct 2014 (Local Time) from KVEL Reporting Station
Clear Clear  
Wind Chill: 54°   Ceiling: Unl
Heat Index: 54°   Visibility: 9mi
Dew Point: 40°   Wind: 3mph
Humidity: 59%   Direction: 280°W
Pressure: 30.06"   Gusts: NA
Location:  40.29°N, 109.86°W
Report Text: KVEL 210153Z AUTO 28003KT 9SM CLR 12/04 A3006 RMK AO2 SLP161 T01220044
Loading
Personal Weather Stations






























Interactive Weather Map
Tropical Storm Tracking
New forecast layout! Learn more

10-Day Weather Forecast

Advertisements
Track Severe Weather on mobile